createdAt,value
2023-05-03T00:00:20.650Z,6.57
2023-05-03T00:01:20.538Z,6.46
2023-05-03T00:02:20.684Z,6.18
2023-05-03T00:03:20.612Z,6.04
2023-05-03T00:04:20.575Z,6.70
2023-05-03T00:05:20.630Z,6.32
2023-05-03T00:06:20.600Z,6.16
2023-05-03T00:07:20.593Z,5.66
2023-05-03T00:08:20.565Z,6.44
2023-05-03T00:09:20.613Z,6.58
2023-05-03T00:10:20.595Z,6.74
2023-05-03T00:11:20.590Z,7.56
2023-05-03T00:12:20.594Z,7.75
2023-05-03T00:13:20.613Z,7.15
2023-05-03T00:14:20.623Z,7.29
2023-05-03T00:15:20.623Z,7.18
2023-05-03T00:16:20.679Z,7.02
2023-05-03T00:17:20.626Z,6.43
2023-05-03T00:18:20.647Z,6.76
2023-05-03T00:19:30.568Z,8.16
2023-05-03T00:20:21.616Z,7.13
2023-05-03T00:21:20.607Z,7.66
2023-05-03T00:22:20.599Z,7.99
2023-05-03T00:23:20.598Z,8.32
2023-05-03T00:24:20.631Z,8.31
2023-05-03T00:25:20.612Z,8.06
2023-05-03T00:26:20.606Z,8.27
2023-05-03T00:27:20.540Z,8.08
2023-05-03T00:28:20.598Z,8.15
2023-05-03T00:29:20.559Z,7.74
2023-05-03T00:30:20.654Z,8.80
2023-05-03T00:31:20.664Z,9.33
2023-05-03T00:32:20.596Z,8.60
2023-05-03T00:33:20.502Z,8.15
2023-05-03T00:34:20.502Z,8.43
2023-05-03T00:35:20.524Z,7.82
2023-05-03T00:36:20.524Z,7.26
2023-05-03T00:37:20.531Z,7.60
2023-05-03T00:38:20.527Z,7.64
2023-05-03T00:39:20.547Z,7.65
2023-05-03T00:40:20.522Z,7.31
2023-05-03T00:41:20.489Z,7.88
2023-05-03T00:42:20.486Z,7.28
2023-05-03T00:43:20.446Z,8.56
2023-05-03T00:44:20.469Z,8.90
2023-05-03T00:45:20.450Z,7.44
2023-05-03T00:46:20.540Z,7.21
2023-05-03T00:47:20.477Z,8.30
2023-05-03T00:48:20.470Z,7.80
2023-05-03T00:49:20.449Z,7.73
2023-05-03T00:50:20.450Z,7.68
2023-05-03T00:51:20.488Z,8.60
2023-05-03T00:52:20.459Z,7.65
2023-05-03T00:53:20.466Z,7.82
2023-05-03T00:54:20.505Z,8.10
2023-05-03T00:55:20.471Z,8.53
2023-05-03T00:56:20.491Z,8.62
2023-05-03T00:57:20.493Z,6.88
2023-05-03T00:58:20.545Z,7.49
2023-05-03T00:59:20.564Z,7.29
2023-05-03T01:00:20.539Z,7.70
2023-05-03T01:01:20.581Z,6.89
2023-05-03T01:02:20.562Z,7.58
2023-05-03T01:03:20.704Z,6.19
2023-05-03T01:04:20.571Z,6.47
2023-05-03T01:05:20.566Z,7.01
2023-05-03T01:06:20.988Z,8.17
2023-05-03T01:07:20.588Z,8.26
2023-05-03T01:08:20.560Z,8.60
2023-05-03T01:09:20.502Z,9.13
2023-05-03T01:10:20.582Z,9.14
2023-05-03T01:11:20.581Z,10.21
2023-05-03T01:12:20.580Z,9.28
2023-05-03T01:13:20.559Z,9.17
2023-05-03T01:14:20.566Z,9.49
2023-05-03T01:15:20.571Z,10.01
2023-05-03T01:16:20.679Z,9.89
2023-05-03T01:17:20.657Z,9.69
2023-05-03T01:18:20.583Z,8.39
2023-05-03T01:19:20.647Z,9.46
2023-05-03T01:20:20.690Z,9.43
2023-05-03T01:21:20.631Z,10.78
2023-05-03T01:22:20.608Z,9.58
2023-05-03T01:23:20.669Z,9.44
2023-05-03T01:24:20.707Z,8.32
2023-05-03T01:25:20.611Z,9.64
2023-05-03T01:26:20.640Z,9.10
2023-05-03T01:27:20.686Z,9.07
2023-05-03T01:28:20.738Z,7.07
2023-05-03T01:29:20.784Z,6.84
2023-05-03T01:30:20.826Z,8.06
2023-05-03T01:31:20.930Z,7.27
2023-05-03T01:32:20.884Z,8.07
2023-05-03T01:33:20.893Z,8.90
2023-05-03T01:34:20.891Z,8.53
2023-05-03T01:35:20.896Z,9.06
2023-05-03T01:36:20.909Z,8.17
2023-05-03T01:37:20.871Z,8.24
2023-05-03T01:38:20.896Z,8.06
2023-05-03T01:39:20.895Z,7.99
2023-05-03T01:40:20.899Z,8.97
2023-05-03T01:41:20.928Z,8.22
2023-05-03T01:42:20.915Z,8.70
2023-05-03T01:43:20.898Z,9.06
2023-05-03T01:44:20.925Z,8.92
2023-05-03T01:45:20.924Z,9.21
2023-05-03T01:46:20.924Z,9.59
2023-05-03T01:47:20.942Z,10.37
2023-05-03T01:48:20.980Z,10.16
2023-05-03T01:49:20.955Z,9.51
2023-05-03T01:50:20.939Z,8.97
2023-05-03T01:51:20.963Z,10.03
2023-05-03T01:52:20.947Z,10.50
2023-05-03T01:53:20.979Z,10.35
2023-05-03T01:54:21.040Z,11.00
2023-05-03T01:55:20.995Z,11.20
2023-05-03T01:56:21.011Z,10.85
2023-05-03T01:57:20.998Z,10.47
2023-05-03T01:58:21.015Z,10.23
2023-05-03T01:59:20.998Z,10.54
2023-05-03T02:00:21.053Z,11.15
2023-05-03T02:01:21.108Z,10.10
2023-05-03T02:02:21.031Z,10.00
2023-05-03T02:03:21.062Z,9.75
2023-05-03T02:04:21.162Z,10.51
2023-05-03T02:05:21.090Z,10.98
2023-05-03T02:06:21.245Z,11.73
2023-05-03T02:07:21.157Z,12.31
2023-05-03T02:08:21.159Z,12.18
2023-05-03T02:09:21.174Z,12.42
2023-05-03T02:10:21.202Z,13.82
2023-05-03T02:11:21.230Z,13.81
2023-05-03T02:12:21.272Z,12.83
2023-05-03T02:13:21.253Z,14.30
2023-05-03T02:14:21.278Z,14.42
2023-05-03T02:15:21.278Z,13.69
2023-05-03T02:16:21.540Z,11.70
2023-05-03T02:17:21.324Z,11.41
2023-05-03T02:18:21.366Z,9.92
2023-05-03T02:19:21.287Z,10.89
2023-05-03T02:20:21.322Z,9.65
2023-05-03T02:21:21.334Z,9.12
2023-05-03T02:22:21.382Z,8.89
2023-05-03T02:23:21.335Z,9.64
2023-05-03T02:24:21.437Z,9.13
2023-05-03T02:25:21.438Z,9.65
2023-05-03T02:26:21.401Z,9.09
2023-05-03T02:27:21.414Z,9.83
2023-05-03T02:28:21.419Z,10.43
2023-05-03T02:29:22.007Z,8.07
2023-05-03T02:30:21.494Z,8.72
2023-05-03T02:31:21.539Z,8.99
2023-05-03T02:32:21.445Z,8.12
2023-05-03T02:33:21.447Z,9.17
2023-05-03T02:34:21.463Z,8.56
2023-05-03T02:35:21.574Z,8.94
2023-05-03T02:36:21.458Z,8.72
2023-05-03T02:37:21.539Z,8.46
2023-05-03T02:38:21.444Z,8.35
2023-05-03T02:39:21.490Z,8.47
2023-05-03T02:40:21.521Z,7.50
2023-05-03T02:41:21.531Z,8.48
2023-05-03T02:42:21.551Z,8.22
2023-05-03T02:43:21.605Z,7.77
2023-05-03T02:44:21.584Z,7.81
2023-05-03T02:45:21.589Z,7.93
2023-05-03T02:46:21.597Z,7.62
2023-05-03T02:47:21.630Z,7.43
2023-05-03T02:48:21.628Z,7.29
2023-05-03T02:49:21.667Z,6.21
2023-05-03T02:50:21.726Z,7.45
2023-05-03T02:51:21.725Z,6.89
2023-05-03T02:52:21.700Z,6.75
2023-05-03T02:53:21.804Z,6.89
2023-05-03T02:54:21.767Z,8.10
2023-05-03T02:55:21.783Z,8.46
2023-05-03T02:56:21.874Z,7.34
2023-05-03T02:57:21.826Z,6.95
2023-05-03T02:58:21.871Z,8.11
2023-05-03T02:59:21.871Z,6.82
2023-05-03T03:00:21.915Z,7.41
2023-05-03T03:01:22.051Z,7.83
2023-05-03T03:02:21.990Z,8.27
2023-05-03T03:03:22.075Z,7.86
2023-05-03T03:04:22.043Z,8.50
2023-05-03T03:05:22.060Z,6.81
2023-05-03T03:06:22.167Z,7.27
2023-05-03T03:07:22.145Z,6.87
2023-05-03T03:08:22.135Z,7.89
2023-05-03T03:09:22.180Z,7.75
2023-05-03T03:10:22.234Z,7.47
2023-05-03T03:11:22.227Z,8.83
2023-05-03T03:12:22.277Z,9.35
2023-05-03T03:13:22.330Z,9.54
2023-05-03T03:14:22.341Z,9.03
2023-05-03T03:15:22.408Z,10.23
2023-05-03T03:16:22.505Z,10.78
2023-05-03T03:17:22.505Z,10.40
2023-05-03T03:18:22.528Z,10.29
2023-05-03T03:19:22.511Z,11.07
2023-05-03T03:20:22.594Z,10.78
2023-05-03T03:21:23.006Z,10.75
2023-05-03T03:22:22.648Z,10.75
2023-05-03T03:23:22.716Z,11.63
2023-05-03T03:24:22.769Z,10.81
2023-05-03T03:25:22.764Z,11.92
2023-05-03T03:26:22.829Z,9.54
2023-05-03T03:27:22.857Z,7.73
2023-05-03T03:28:22.924Z,7.42
2023-05-03T03:29:22.961Z,5.91
2023-05-03T03:30:22.992Z,5.54
2023-05-03T03:31:23.154Z,5.83
2023-05-03T03:32:23.107Z,5.54
2023-05-03T03:33:24.676Z,6.35
2023-05-03T03:34:23.149Z,5.40
2023-05-03T03:35:23.172Z,4.69
2023-05-03T03:36:23.208Z,5.07
2023-05-03T03:37:23.268Z,5.42
2023-05-03T03:38:23.318Z,4.91
2023-05-03T03:39:23.342Z,4.62
2023-05-03T03:40:23.383Z,4.38
2023-05-03T03:41:23.451Z,4.54
2023-05-03T03:42:23.517Z,4.50
2023-05-03T03:43:23.520Z,4.97
2023-05-03T03:44:23.579Z,4.06
2023-05-03T03:45:23.627Z,4.49
2023-05-03T03:46:23.773Z,4.71
2023-05-03T03:47:23.996Z,4.72
2023-05-03T03:48:23.775Z,4.37
2023-05-03T03:49:23.782Z,4.92
2023-05-03T03:50:23.861Z,5.35
2023-05-03T03:51:23.910Z,4.86
2023-05-03T03:52:23.988Z,5.51
2023-05-03T03:53:24.000Z,4.46
2023-05-03T03:54:24.014Z,4.95
2023-05-03T03:55:24.109Z,4.68
2023-05-03T03:56:24.170Z,4.81
2023-05-03T03:57:24.215Z,5.56
2023-05-03T03:58:24.249Z,4.57
2023-05-03T03:59:24.407Z,4.62
2023-05-03T04:00:24.358Z,4.20
2023-05-03T04:01:24.409Z,4.51
2023-05-03T04:02:24.501Z,4.83
2023-05-03T04:03:24.616Z,4.48
2023-05-03T04:04:24.598Z,4.50
2023-05-03T04:05:24.636Z,4.93
2023-05-03T04:06:24.705Z,4.78
2023-05-03T04:07:24.765Z,4.95
2023-05-03T04:08:24.774Z,4.77
2023-05-03T04:09:24.819Z,5.58
2023-05-03T04:10:24.881Z,5.36
2023-05-03T04:11:24.942Z,4.50
2023-05-03T04:12:24.949Z,5.36
2023-05-03T04:13:25.031Z,4.46
2023-05-03T04:14:25.051Z,4.48
2023-05-03T04:15:25.119Z,5.33
2023-05-03T04:16:25.194Z,4.74
2023-05-03T04:17:25.284Z,5.20
2023-05-03T04:18:25.261Z,5.71
2023-05-03T04:19:25.291Z,4.74
2023-05-03T04:20:25.370Z,5.19
2023-05-03T04:21:25.384Z,5.48
2023-05-03T04:22:25.419Z,5.11
2023-05-03T04:23:25.480Z,4.71
2023-05-03T04:24:25.547Z,4.57
2023-05-03T04:25:25.580Z,4.52
2023-05-03T04:26:31.872Z,5.92
2023-05-03T04:27:26.655Z,5.24
2023-05-03T04:28:25.619Z,5.74
2023-05-03T04:29:25.645Z,5.45
2023-05-03T04:30:25.625Z,5.39
2023-05-03T04:31:25.676Z,5.28
2023-05-03T04:32:25.584Z,5.34
2023-05-03T04:33:25.594Z,4.95
2023-05-03T04:34:25.570Z,5.68
2023-05-03T04:35:25.571Z,5.77
2023-05-03T04:36:25.628Z,5.50
2023-05-03T04:37:25.598Z,5.54
2023-05-03T04:38:25.643Z,5.52
2023-05-03T04:39:25.686Z,4.79
2023-05-03T04:40:25.732Z,5.47
2023-05-03T04:41:25.803Z,5.59
2023-05-03T04:42:25.823Z,5.30
2023-05-03T04:43:25.863Z,4.86
2023-05-03T04:44:25.889Z,4.94
2023-05-03T04:45:25.995Z,5.41
2023-05-03T04:46:26.135Z,5.27
2023-05-03T04:47:26.108Z,4.97
2023-05-03T04:48:26.130Z,5.18
2023-05-03T04:49:26.207Z,5.50
2023-05-03T04:50:26.257Z,5.56
2023-05-03T04:51:26.347Z,5.07
2023-05-03T04:52:26.405Z,5.19
2023-05-03T04:53:26.398Z,5.19
2023-05-03T04:54:26.485Z,5.48
2023-05-03T04:55:26.526Z,5.27
2023-05-03T04:56:27.064Z,5.12
2023-05-03T04:57:26.645Z,4.78
2023-05-03T04:58:26.704Z,5.24
2023-05-03T04:59:26.772Z,4.86
2023-05-03T05:00:26.815Z,5.17
2023-05-03T05:01:26.897Z,5.42
2023-05-03T05:02:27.090Z,5.41
2023-05-03T05:03:27.073Z,5.59
2023-05-03T05:04:27.056Z,5.41
2023-05-03T05:05:27.140Z,5.62
2023-05-03T05:06:27.212Z,5.41
2023-05-03T05:07:27.213Z,5.84
2023-05-03T05:08:27.260Z,6.80
2023-05-03T05:09:27.289Z,6.29
2023-05-03T05:10:27.375Z,6.65
2023-05-03T05:11:27.482Z,5.04
2023-05-03T05:12:27.560Z,5.95
2023-05-03T05:13:27.553Z,5.07
2023-05-03T05:14:27.601Z,4.69
2023-05-03T05:15:27.645Z,5.01
2023-05-03T05:16:27.694Z,5.37
2023-05-03T05:17:28.177Z,5.41
2023-05-03T05:18:27.826Z,6.04
2023-05-03T05:19:27.849Z,5.26
2023-05-03T05:20:27.921Z,5.46
2023-05-03T05:21:27.965Z,6.10
2023-05-03T05:22:28.035Z,5.74
2023-05-03T05:23:28.143Z,5.38
2023-05-03T05:24:28.143Z,5.91
2023-05-03T05:25:28.186Z,6.28
2023-05-03T05:26:28.208Z,5.72
2023-05-03T05:27:28.584Z,5.64
2023-05-03T05:28:28.271Z,6.00
2023-05-03T05:29:28.319Z,6.17
2023-05-03T05:30:28.351Z,5.93
2023-05-03T05:31:28.420Z,6.30
2023-05-03T05:32:28.538Z,6.15
2023-05-03T05:33:28.544Z,6.34
2023-05-03T05:34:29.008Z,6.14
2023-05-03T05:35:28.497Z,6.34
2023-05-03T05:36:28.500Z,6.53
2023-05-03T05:37:28.555Z,6.87
2023-05-03T05:38:28.549Z,6.55
2023-05-03T05:39:28.574Z,7.29
2023-05-03T05:40:28.579Z,6.82
2023-05-03T05:41:28.613Z,7.50
2023-05-03T05:42:28.609Z,6.68
2023-05-03T05:43:28.626Z,6.21
2023-05-03T05:44:28.593Z,7.55
2023-05-03T05:45:28.637Z,7.30
2023-05-03T05:46:28.647Z,8.03
2023-05-03T05:47:28.772Z,7.54
2023-05-03T05:48:28.663Z,7.71
2023-05-03T05:49:28.659Z,7.33
2023-05-03T05:50:28.717Z,7.67
2023-05-03T05:51:28.726Z,8.10
2023-05-03T05:52:28.859Z,8.34
2023-05-03T05:53:28.771Z,9.54
2023-05-03T05:54:30.439Z,8.57
2023-05-03T05:55:28.837Z,9.10
2023-05-03T05:56:28.794Z,8.49
2023-05-03T05:57:29.126Z,9.89
2023-05-03T05:58:28.777Z,8.66
2023-05-03T05:59:28.782Z,9.14
2023-05-03T06:00:28.833Z,9.74
2023-05-03T06:01:28.799Z,8.03
2023-05-03T06:02:28.942Z,8.69
2023-05-03T06:03:28.834Z,10.26
2023-05-03T06:04:28.767Z,9.23
2023-05-03T06:05:28.891Z,15.59
2023-05-03T06:06:28.852Z,15.05
2023-05-03T06:07:28.940Z,13.28
2023-05-03T06:08:28.913Z,12.44
2023-05-03T06:09:28.930Z,8.81
2023-05-03T06:10:29.067Z,9.06
2023-05-03T06:11:29.046Z,8.46
2023-05-03T06:12:29.597Z,9.01
2023-05-03T06:13:29.088Z,8.52
2023-05-03T06:14:29.088Z,8.46
2023-05-03T06:15:29.137Z,8.33
2023-05-03T06:16:29.186Z,7.87
2023-05-03T06:17:29.256Z,8.31
2023-05-03T06:18:29.268Z,7.95
2023-05-03T06:19:29.351Z,8.29
2023-05-03T06:20:29.419Z,8.04
2023-05-03T06:21:29.458Z,8.98
2023-05-03T06:22:29.488Z,8.44
2023-05-03T06:23:29.569Z,9.37
2023-05-03T06:24:29.553Z,8.30
2023-05-03T06:25:29.637Z,8.76
2023-05-03T06:26:29.686Z,8.41
2023-05-03T06:27:29.746Z,8.74
2023-05-03T06:28:29.810Z,8.12
2023-05-03T06:29:29.879Z,8.19
2023-05-03T06:30:29.924Z,8.54
2023-05-03T06:31:30.024Z,9.44
2023-05-03T06:32:30.071Z,8.90
2023-05-03T06:33:30.077Z,9.56
2023-05-03T06:34:30.159Z,9.02
2023-05-03T06:35:30.203Z,9.07
2023-05-03T06:36:30.264Z,9.14
2023-05-03T06:37:30.329Z,8.56
2023-05-03T06:38:30.422Z,7.79
2023-05-03T06:39:30.445Z,8.50
2023-05-03T06:40:30.496Z,8.77
2023-05-03T06:41:30.622Z,8.39
2023-05-03T06:42:30.627Z,10.62
2023-05-03T06:43:30.726Z,9.80
2023-05-03T06:44:30.792Z,8.75
2023-05-03T06:45:30.849Z,9.61
2023-05-03T06:46:30.925Z,8.89
2023-05-03T06:47:31.093Z,9.04
2023-05-03T06:48:31.013Z,9.13
2023-05-03T06:49:31.049Z,8.61
2023-05-03T06:50:31.120Z,8.22
2023-05-03T06:51:31.188Z,9.06
2023-05-03T06:52:31.208Z,9.00
2023-05-03T06:53:31.264Z,8.28
2023-05-03T06:54:31.273Z,8.47
2023-05-03T06:55:31.281Z,9.44
2023-05-03T06:56:32.102Z,9.16
2023-05-03T06:57:31.598Z,9.80
2023-05-03T06:58:31.443Z,8.58
2023-05-03T06:59:31.567Z,8.80
2023-05-03T07:00:31.560Z,9.04
2023-05-03T07:01:31.589Z,9.59
2023-05-03T07:02:31.734Z,9.58
2023-05-03T07:03:31.720Z,9.24
2023-05-03T07:04:31.741Z,9.20
2023-05-03T07:05:31.784Z,9.35
2023-05-03T07:06:37.723Z,9.00
2023-05-03T07:07:32.877Z,7.49
2023-05-03T07:08:32.792Z,9.13
2023-05-03T07:09:42.718Z,9.66
2023-05-03T07:10:32.822Z,8.71
2023-05-03T07:11:31.798Z,9.03
2023-05-03T07:12:31.796Z,9.21
2023-05-03T07:13:31.746Z,10.00
2023-05-03T07:14:31.866Z,10.52
2023-05-03T07:15:31.810Z,9.95
2023-05-03T07:16:31.831Z,9.86
2023-05-03T07:17:32.143Z,10.42
2023-05-03T07:18:31.726Z,11.55
2023-05-03T07:19:31.738Z,10.98
2023-05-03T07:20:31.712Z,10.33
2023-05-03T07:21:31.717Z,10.22
2023-05-03T07:22:31.705Z,9.91
2023-05-03T07:23:31.723Z,11.27
2023-05-03T07:24:31.674Z,11.59
2023-05-03T07:25:31.910Z,10.95
2023-05-03T07:26:31.658Z,10.67
2023-05-03T07:27:31.677Z,10.68
2023-05-03T07:28:31.690Z,12.06
2023-05-03T07:29:31.723Z,11.53
2023-05-03T07:30:31.729Z,11.62
2023-05-03T07:31:31.879Z,11.26
2023-05-03T07:33:31.896Z,10.75
2023-05-03T07:34:31.789Z,11.00
2023-05-03T07:35:31.797Z,11.21
2023-05-03T07:36:31.764Z,10.65
2023-05-03T07:37:31.811Z,9.65
2023-05-03T07:38:31.772Z,9.66
2023-05-03T07:39:31.817Z,10.11
2023-05-03T07:40:31.782Z,9.16
2023-05-03T07:41:31.805Z,9.45
2023-05-03T07:42:32.089Z,9.32
2023-05-03T07:43:31.799Z,9.23
2023-05-03T07:44:31.802Z,9.96
2023-05-03T07:45:31.867Z,9.16
2023-05-03T07:46:31.823Z,10.35
2023-05-03T07:47:31.855Z,10.54
2023-05-03T07:48:31.840Z,10.09
2023-05-03T07:49:31.937Z,10.83
2023-05-03T07:50:31.903Z,9.52
2023-05-03T07:51:32.114Z,9.88
2023-05-03T07:52:31.902Z,10.32
2023-05-03T07:53:31.946Z,9.30
2023-05-03T07:54:32.021Z,9.48
2023-05-03T07:55:32.064Z,9.34
2023-05-03T07:56:32.164Z,8.98
2023-05-03T07:57:32.584Z,11.68
2023-05-03T07:58:40.099Z,9.80
2023-05-03T07:59:33.244Z,8.98
2023-05-03T08:00:32.257Z,8.29
2023-05-03T08:01:32.246Z,8.96
2023-05-03T08:02:32.701Z,8.67
2023-05-03T08:03:32.620Z,8.17
2023-05-03T08:04:32.507Z,8.25
2023-05-03T08:05:32.251Z,8.64
2023-05-03T08:06:32.273Z,7.75
2023-05-03T08:07:32.211Z,7.51
2023-05-03T08:08:32.283Z,7.31
2023-05-03T08:09:32.239Z,7.34
2023-05-03T08:10:32.242Z,6.91
2023-05-03T08:11:32.286Z,6.31
2023-05-03T08:12:32.360Z,7.37
2023-05-03T08:13:32.373Z,6.84
2023-05-03T08:14:32.415Z,6.79
2023-05-03T08:15:32.485Z,7.86
2023-05-03T08:16:32.512Z,7.31
2023-05-03T08:17:32.648Z,5.86
2023-05-03T08:18:32.555Z,5.40
2023-05-03T08:19:32.691Z,5.62
2023-05-03T08:20:32.615Z,6.41
2023-05-03T08:21:32.652Z,6.71
2023-05-03T08:22:33.098Z,6.75
2023-05-03T08:23:32.773Z,4.95
2023-05-03T08:24:32.800Z,5.77
2023-05-03T08:25:32.816Z,5.66
2023-05-03T08:26:32.858Z,5.29
2023-05-03T08:27:33.097Z,4.93
2023-05-03T08:28:32.885Z,5.20
2023-05-03T08:29:32.952Z,4.93
2023-05-03T08:30:32.994Z,5.80
2023-05-03T08:31:33.073Z,4.56
2023-05-03T08:32:33.131Z,4.48
2023-05-03T08:33:33.169Z,4.96
2023-05-03T08:34:33.214Z,5.05
2023-05-03T08:35:33.236Z,5.12
2023-05-03T08:36:33.237Z,4.85
2023-05-03T08:37:33.241Z,5.24
2023-05-03T08:38:33.257Z,5.30
2023-05-03T08:39:33.329Z,4.08
2023-05-03T08:40:33.427Z,4.91
2023-05-03T08:41:34.119Z,5.23
2023-05-03T08:42:33.585Z,4.76
2023-05-03T08:43:33.589Z,4.79
2023-05-03T08:44:33.646Z,5.50
2023-05-03T08:45:33.665Z,6.32
2023-05-03T08:46:33.774Z,5.24
2023-05-03T08:47:34.132Z,5.02
2023-05-03T08:48:33.838Z,5.25
2023-05-03T08:49:33.896Z,5.07
2023-05-03T08:50:33.957Z,4.63
2023-05-03T08:51:34.115Z,5.16
2023-05-03T08:52:34.180Z,4.71
2023-05-03T08:53:34.183Z,4.89
2023-05-03T08:54:34.125Z,4.45
2023-05-03T08:55:34.150Z,5.39
2023-05-03T08:56:34.226Z,5.30
2023-05-03T08:57:34.237Z,5.51
2023-05-03T08:58:34.311Z,5.40
2023-05-03T08:59:34.359Z,5.68
2023-05-03T09:00:34.370Z,5.56
2023-05-03T09:01:34.432Z,5.61
2023-05-03T09:02:34.498Z,5.43
2023-05-03T09:03:34.545Z,5.72
2023-05-03T09:04:34.511Z,5.35
2023-05-03T09:05:34.565Z,4.82
2023-05-03T09:06:34.616Z,4.92
2023-05-03T09:07:34.690Z,5.04
2023-05-03T09:08:34.639Z,5.46
2023-05-03T09:09:34.682Z,4.80
2023-05-03T09:10:34.701Z,5.27
2023-05-03T09:11:34.693Z,5.65
2023-05-03T09:12:34.759Z,5.23
2023-05-03T09:13:34.752Z,5.16
2023-05-03T09:14:34.750Z,4.53
2023-05-03T09:15:34.795Z,4.84
2023-05-03T09:16:34.798Z,4.88
2023-05-03T09:17:35.154Z,5.13
2023-05-03T09:18:34.799Z,5.37
2023-05-03T09:19:34.849Z,5.00
2023-05-03T09:20:34.824Z,5.74
2023-05-03T09:21:34.877Z,5.15
2023-05-03T09:22:35.142Z,5.61
2023-05-03T09:23:34.842Z,5.73
2023-05-03T09:24:34.861Z,5.29
2023-05-03T09:25:34.887Z,5.07
2023-05-03T09:26:37.282Z,6.23
2023-05-03T09:27:35.121Z,5.11
2023-05-03T09:28:34.841Z,6.31
2023-05-03T09:29:34.834Z,6.25
2023-05-03T09:30:34.856Z,5.50
2023-05-03T09:31:34.856Z,5.90
2023-05-03T09:32:34.838Z,5.97
2023-05-03T09:33:34.874Z,5.84
2023-05-03T09:34:34.866Z,6.20
2023-05-03T09:35:34.868Z,5.79
2023-05-03T09:36:34.782Z,6.05
2023-05-03T09:37:34.797Z,6.07
2023-05-03T09:38:34.844Z,5.80
2023-05-03T09:39:34.809Z,6.98
2023-05-03T09:40:34.826Z,5.72
2023-05-03T09:41:34.750Z,5.35
2023-05-03T09:42:34.792Z,5.19
2023-05-03T09:43:34.821Z,6.06
2023-05-03T09:44:34.750Z,6.24
2023-05-03T09:45:34.792Z,6.49
2023-05-03T09:46:34.808Z,6.33
2023-05-03T09:47:34.786Z,6.05
2023-05-03T09:48:34.704Z,6.11
2023-05-03T09:49:34.778Z,6.99
2023-05-03T09:50:35.710Z,6.23
2023-05-03T09:51:34.712Z,5.94
2023-05-03T09:52:34.738Z,6.90
2023-05-03T09:53:35.133Z,7.23
2023-05-03T09:54:34.685Z,7.11
2023-05-03T09:55:34.809Z,6.26
2023-05-03T09:56:34.668Z,6.73
2023-05-03T09:57:34.714Z,7.24
2023-05-03T09:58:35.268Z,8.07
2023-05-03T09:59:34.832Z,7.08
2023-05-03T10:00:34.880Z,7.25
2023-05-03T10:01:35.012Z,6.62
2023-05-03T10:02:35.034Z,7.16
2023-05-03T10:03:35.109Z,6.26
2023-05-03T10:04:35.098Z,7.44
2023-05-03T10:05:35.184Z,6.77
2023-05-03T10:06:35.242Z,6.99
2023-05-03T10:07:35.300Z,6.87
2023-05-03T10:08:35.302Z,7.27
2023-05-03T10:09:35.356Z,7.10
2023-05-03T10:10:35.384Z,6.72
2023-05-03T10:11:35.420Z,6.37
2023-05-03T10:12:35.480Z,6.13
2023-05-03T10:13:35.557Z,6.61
2023-05-03T10:14:35.531Z,7.29
2023-05-03T10:15:35.590Z,6.18
2023-05-03T10:16:36.525Z,5.98
2023-05-03T10:17:47.873Z,5.78
2023-05-03T10:18:36.550Z,6.42
2023-05-03T10:19:35.520Z,6.70
2023-05-03T10:20:35.540Z,6.40
2023-05-03T10:21:35.532Z,5.34
2023-05-03T10:22:35.513Z,6.16
2023-05-03T10:23:35.523Z,6.10
2023-05-03T10:24:35.500Z,5.70
2023-05-03T10:25:35.520Z,6.47
2023-05-03T10:26:35.488Z,6.74
2023-05-03T10:27:35.472Z,5.86
2023-05-03T10:28:35.470Z,5.65
2023-05-03T10:29:35.494Z,5.96
2023-05-03T10:30:35.464Z,6.42
2023-05-03T10:31:35.535Z,5.78
2023-05-03T10:32:35.530Z,6.75
2023-05-03T10:33:35.610Z,7.14
2023-05-03T10:34:35.400Z,6.37
2023-05-03T10:35:35.441Z,6.56
2023-05-03T10:36:48.439Z,6.53
2023-05-03T10:37:36.404Z,7.58
2023-05-03T10:38:35.351Z,6.91
2023-05-03T10:39:35.387Z,6.81
2023-05-03T10:40:35.354Z,6.29
2023-05-03T10:41:35.372Z,7.21
2023-05-03T10:42:35.354Z,6.55
2023-05-03T10:43:35.703Z,5.83
2023-05-03T10:44:35.326Z,5.63
2023-05-03T10:45:35.298Z,6.05
2023-05-03T10:46:35.394Z,5.50
2023-05-03T10:47:35.396Z,6.24
2023-05-03T10:48:35.327Z,5.88
2023-05-03T10:49:35.293Z,5.24
2023-05-03T10:50:35.321Z,5.41
2023-05-03T10:51:35.370Z,5.99
2023-05-03T10:52:35.390Z,5.74
2023-05-03T10:53:35.431Z,5.20
2023-05-03T10:54:35.426Z,5.70
2023-05-03T10:55:35.509Z,5.08
2023-05-03T10:56:35.478Z,5.37
2023-05-03T10:57:36.325Z,5.23
2023-05-03T10:58:35.563Z,5.21
2023-05-03T10:59:35.663Z,5.92
2023-05-03T11:00:35.608Z,6.21
2023-05-03T11:01:35.636Z,5.07
2023-05-03T11:02:35.617Z,5.18
2023-05-03T11:03:35.564Z,6.41
2023-05-03T11:04:35.618Z,5.90
2023-05-03T11:05:35.565Z,6.16
2023-05-03T11:06:35.653Z,5.67
2023-05-03T11:07:35.629Z,5.45
2023-05-03T11:08:35.626Z,5.07
2023-05-03T11:09:35.648Z,4.71
2023-05-03T11:10:35.628Z,5.30
2023-05-03T11:11:35.679Z,5.47
2023-05-03T11:12:35.696Z,5.24
2023-05-03T11:13:35.756Z,4.78
2023-05-03T11:14:35.760Z,4.71
2023-05-03T11:15:35.779Z,4.94
2023-05-03T11:16:35.818Z,4.80
2023-05-03T11:17:35.968Z,5.08
2023-05-03T11:18:35.917Z,4.94
2023-05-03T11:19:35.976Z,4.86
2023-05-03T11:20:36.065Z,4.82
2023-05-03T11:21:36.092Z,5.08
2023-05-03T11:22:36.117Z,4.73
2023-05-03T11:23:36.638Z,4.00
2023-05-03T11:24:36.225Z,4.53
2023-05-03T11:25:36.279Z,3.44
2023-05-03T11:26:36.312Z,3.46
2023-05-03T11:27:36.330Z,3.52
2023-05-03T11:28:36.394Z,4.12
2023-05-03T11:29:36.447Z,3.32
2023-05-03T11:30:36.507Z,2.91
2023-05-03T11:31:36.695Z,3.31
2023-05-03T11:32:36.600Z,3.02
2023-05-03T11:33:36.631Z,3.54
2023-05-03T11:34:36.684Z,2.94
2023-05-03T11:35:36.808Z,2.79
2023-05-03T11:36:36.755Z,2.69
2023-05-03T11:37:36.798Z,2.84
2023-05-03T11:38:36.870Z,2.89
2023-05-03T11:39:36.900Z,3.22
2023-05-03T11:40:36.961Z,3.04
2023-05-03T11:41:36.946Z,2.73
2023-05-03T11:42:36.956Z,2.75
2023-05-03T11:43:36.977Z,2.61
2023-05-03T11:44:36.970Z,2.95
2023-05-03T11:45:37.057Z,2.79
2023-05-03T11:46:37.358Z,2.62
2023-05-03T11:47:37.125Z,2.82
2023-05-03T11:48:37.299Z,2.93
2023-05-03T11:49:37.242Z,2.94
2023-05-03T11:50:37.239Z,2.74
2023-05-03T11:51:37.297Z,2.37
2023-05-03T11:52:37.416Z,2.43
2023-05-03T11:53:37.263Z,2.27
2023-05-03T11:54:37.355Z,2.53
2023-05-03T11:55:37.185Z,1.99
2023-05-03T11:56:37.285Z,2.56
2023-05-03T11:57:37.913Z,2.15
2023-05-03T11:58:37.371Z,2.25
2023-05-03T11:59:37.309Z,2.23
2023-05-03T12:00:37.497Z,2.00
2023-05-03T12:01:37.558Z,2.16
2023-05-03T12:02:37.880Z,2.57
2023-05-03T12:03:37.879Z,2.60
2023-05-03T12:04:37.724Z,3.44
2023-05-03T12:05:37.620Z,2.54
2023-05-03T12:06:38.531Z,2.64
2023-05-03T12:07:37.757Z,2.54
2023-05-03T12:08:39.664Z,2.38
2023-05-03T12:09:37.818Z,2.62
2023-05-03T12:10:38.237Z,2.69
2023-05-03T12:11:39.263Z,2.41
2023-05-03T12:12:43.251Z,2.41
2023-05-03T12:13:40.489Z,2.19
2023-05-03T12:14:39.168Z,1.87
2023-05-03T12:15:37.982Z,2.84
2023-05-03T12:16:37.822Z,2.12
2023-05-03T12:17:39.171Z,2.27
2023-05-03T12:18:39.481Z,2.65
2023-05-03T12:19:38.867Z,1.63
2023-05-03T12:21:38.096Z,2.19
2023-05-03T12:22:38.018Z,1.69
2023-05-03T12:23:37.902Z,2.04
2023-05-03T12:24:39.420Z,2.25
2023-05-03T12:25:39.522Z,2.19
2023-05-03T12:26:38.069Z,2.15
2023-05-03T12:27:38.981Z,2.31
2023-05-03T12:28:37.674Z,2.37
2023-05-03T12:29:37.793Z,2.35
2023-05-03T12:30:40.090Z,2.46
2023-05-03T12:31:39.573Z,1.98
2023-05-03T12:32:39.121Z,2.38
2023-05-03T12:33:38.811Z,2.59
2023-05-03T12:34:40.954Z,2.22
2023-05-03T12:35:40.152Z,2.80
2023-05-03T12:36:38.422Z,1.95
2023-05-03T12:37:38.534Z,2.54
2023-05-03T12:38:38.087Z,1.98
2023-05-03T12:39:39.613Z,2.11
2023-05-03T12:40:37.731Z,2.33
2023-05-03T12:42:37.633Z,2.48
2023-05-03T12:43:37.759Z,2.57
2023-05-03T12:44:40.291Z,1.75
2023-05-03T12:45:40.130Z,2.49
2023-05-03T12:46:37.677Z,1.96
2023-05-03T12:47:37.629Z,2.06
2023-05-03T12:48:37.955Z,2.09
2023-05-03T12:49:39.201Z,2.45
2023-05-03T12:50:39.709Z,2.01
2023-05-03T12:51:41.973Z,1.94
2023-05-03T12:52:39.143Z,2.07
2023-05-03T12:53:39.050Z,2.19
2023-05-03T12:54:41.481Z,1.78
2023-05-03T12:55:41.906Z,1.41
2023-05-03T12:56:40.377Z,2.24
2023-05-03T12:57:38.138Z,3.63
2023-05-03T12:59:41.801Z,1.73
2023-05-03T13:00:45.991Z,1.78
2023-05-03T13:04:59.524Z,1.33
2023-05-03T13:05:57.505Z,1.74
2023-05-03T13:07:00.115Z,1.86
2023-05-03T13:07:57.449Z,1.70
2023-05-03T13:09:02.789Z,1.88
2023-05-03T13:10:57.365Z,1.73
2023-05-03T13:11:57.275Z,1.92
2023-05-03T13:12:57.243Z,1.95
2023-05-03T13:13:57.191Z,1.60
2023-05-03T13:14:57.189Z,1.29
2023-05-03T13:15:57.258Z,1.81
2023-05-03T13:16:57.173Z,2.04
2023-05-03T13:17:57.348Z,1.84
2023-05-03T13:18:57.557Z,1.95
2023-05-03T13:19:57.182Z,1.76
2023-05-03T13:20:57.175Z,1.92
2023-05-03T13:21:57.120Z,1.90
2023-05-03T13:22:57.184Z,2.06
2023-05-03T13:23:57.111Z,2.16